sensor_id;sensor_type;location;lat;lon;timestamp;pressure;altitude;pressure_sealevel;temperature;humidity
44297;BME280;51842;47.450;8.654;2023-11-22T00:00:52;95625.56;;;5.43;100.00
44297;BME280;51842;47.450;8.654;2023-11-22T00:03:23;95630.63;;;5.45;100.00
44297;BME280;51842;47.450;8.654;2023-11-22T00:06:06;95632.69;;;5.43;100.00
44297;BME280;51842;47.450;8.654;2023-11-22T00:08:37;95630.28;;;5.41;100.00
44297;BME280;51842;47.450;8.654;2023-11-22T00:11:06;95631.91;;;5.42;100.00
44297;BME280;51842;47.450;8.654;2023-11-22T00:13:42;95632.91;;;5.41;100.00
44297;BME280;51842;47.450;8.654;2023-11-22T00:16:12;95632.91;;;5.41;100.00
44297;BME280;51842;47.450;8.654;2023-11-22T00:18:45;95638.19;;;5.41;100.00
44297;BME280;51842;47.450;8.654;2023-11-22T00:21:14;95640.84;;;5.41;100.00
44297;BME280;51842;47.450;8.654;2023-11-22T00:24:26;95637.19;;;5.42;100.00
44297;BME280;51842;47.450;8.654;2023-11-22T00:26:55;95634.28;;;5.44;100.00
44297;BME280;51842;47.450;8.654;2023-11-22T00:29:26;95640.63;;;5.43;100.00
44297;BME280;51842;47.450;8.654;2023-11-22T00:31:52;95635.56;;;5.41;100.00
44297;BME280;51842;47.450;8.654;2023-11-22T00:34:18;95638.44;;;5.40;100.00
44297;BME280;51842;47.450;8.654;2023-11-22T00:36:44;95627.63;;;5.41;100.00
44297;BME280;51842;47.450;8.654;2023-11-22T00:39:10;95637.66;;;5.39;100.00
44297;BME280;51842;47.450;8.654;2023-11-22T00:41:39;95646.59;;;5.38;100.00
44297;BME280;51842;47.450;8.654;2023-11-22T00:44:05;95642.09;;;5.39;100.00
44297;BME280;51842;47.450;8.654;2023-11-22T00:46:34;95649.00;;;5.40;100.00
44297;BME280;51842;47.450;8.654;2023-11-22T00:49:00;95646.38;;;5.40;100.00
44297;BME280;51842;47.450;8.654;2023-11-22T00:51:26;95651.88;;;5.38;100.00
44297;BME280;51842;47.450;8.654;2023-11-22T00:53:52;95653.13;;;5.36;100.00
44297;BME280;51842;47.450;8.654;2023-11-22T00:56:18;95648.88;;;5.34;100.00
44297;BME280;51842;47.450;8.654;2023-11-22T00:58:44;95652.91;;;5.37;100.00
44297;BME280;51842;47.450;8.654;2023-11-22T01:01:10;95654.50;;;5.38;100.00
44297;BME280;51842;47.450;8.654;2023-11-22T01:03:36;95662.44;;;5.38;100.00
44297;BME280;51842;47.450;8.654;2023-11-22T01:06:02;95664.84;;;5.40;100.00
44297;BME280;51842;47.450;8.654;2023-11-22T01:08:28;95657.94;;;5.39;100.00
44297;BME280;51842;47.450;8.654;2023-11-22T01:10:54;95669.56;;;5.38;100.00
44297;BME280;51842;47.450;8.654;2023-11-22T01:13:20;95666.13;;;5.37;100.00
44297;BME280;51842;47.450;8.654;2023-11-22T01:15:47;95661.63;;;5.38;100.00
44297;BME280;51842;47.450;8.654;2023-11-22T01:18:13;95664.63;;;5.41;100.00
44297;BME280;51842;47.450;8.654;2023-11-22T01:20:39;95666.69;;;5.39;100.00
44297;BME280;51842;47.450;8.654;2023-11-22T01:23:05;95668.31;;;5.40;100.00
44297;BME280;51842;47.450;8.654;2023-11-22T01:25:31;95666.69;;;5.39;100.00
44297;BME280;51842;47.450;8.654;2023-11-22T01:27:56;95673.25;;;5.37;100.00
44297;BME280;51842;47.450;8.654;2023-11-22T01:30:22;95672.06;;;5.32;100.00
44297;BME280;51842;47.450;8.654;2023-11-22T01:32:48;95666.78;;;5.32;100.00
44297;BME280;51842;47.450;8.654;2023-11-22T01:35:15;95669.22;;;5.34;100.00
44297;BME280;51842;47.450;8.654;2023-11-22T01:37:41;95666.56;;;5.34;100.00
44297;BME280;51842;47.450;8.654;2023-11-22T01:40:08;95670.47;;;5.31;100.00
44297;BME280;51842;47.450;8.654;2023-11-22T01:42:34;95664.72;;;5.34;100.00
44297;BME280;51842;47.450;8.654;2023-11-22T01:45:03;95670.59;;;5.37;100.00
44297;BME280;51842;47.450;8.654;2023-11-22T01:47:30;95667.72;;;5.38;100.00
44297;BME280;51842;47.450;8.654;2023-11-22T01:49:56;95673.25;;;5.37;100.00
44297;BME280;51842;47.450;8.654;2023-11-22T01:52:23;95673.25;;;5.37;100.00
44297;BME280;51842;47.450;8.654;2023-11-22T01:54:49;95677.47;;;5.38;100.00
44297;BME280;51842;47.450;8.654;2023-11-22T01:57:15;95670.00;;;5.34;100.00
44297;BME280;51842;47.450;8.654;2023-11-22T01:59:42;95677.72;;;5.36;100.00
44297;BME280;51842;47.450;8.654;2023-11-22T02:02:09;95674.84;;;5.38;100.00
44297;BME280;51842;47.450;8.654;2023-11-22T02:04:35;95677.47;;;5.38;100.00
44297;BME280;51842;47.450;8.654;2023-11-22T02:07:00;95677.47;;;5.38;100.00
44297;BME280;51842;47.450;8.654;2023-11-22T02:09:26;95687.59;;;5.41;100.00
44297;BME280;51842;47.450;8.654;2023-11-22T02:11:52;95685.41;;;5.38;100.00
44297;BME280;51842;47.450;8.654;2023-11-22T02:14:18;95682.56;;;5.39;100.00
44297;BME280;51842;47.450;8.654;2023-11-22T02:16:45;95674.16;;;5.42;100.00
44297;BME280;51842;47.450;8.654;2023-11-22T02:19:15;95682.09;;;5.42;100.00
44297;BME280;51842;47.450;8.654;2023-11-22T02:21:42;95681.84;;;5.44;100.00
44297;BME280;51842;47.450;8.654;2023-11-22T02:24:09;95681.06;;;5.43;100.00
44297;BME280;51842;47.450;8.654;2023-11-22T02:26:35;95688.19;;;5.43;100.00
44297;BME280;51842;47.450;8.654;2023-11-22T02:29:02;95691.84;;;5.42;100.00
44297;BME280;51842;47.450;8.654;2023-11-22T02:31:32;95690.81;;;5.43;100.00
44297;BME280;51842;47.450;8.654;2023-11-22T02:33:59;95691.84;;;5.42;100.00
44297;BME280;51842;47.450;8.654;2023-11-22T02:36:25;95696.56;;;5.40;100.00
44297;BME280;51842;47.450;8.654;2023-11-22T02:38:52;95692.06;;;5.40;100.00
44297;BME280;51842;47.450;8.654;2023-11-22T02:41:18;95693.13;;;5.39;100.00
44297;BME280;51842;47.450;8.654;2023-11-22T02:43:44;95704.03;;;5.43;100.00
44297;BME280;51842;47.450;8.654;2023-11-22T02:46:11;95698.41;;;5.39;100.00
44297;BME280;51842;47.450;8.654;2023-11-22T02:48:37;95698.41;;;5.39;100.00
44297;BME280;51842;47.450;8.654;2023-11-22T02:51:03;95701.59;;;5.41;100.00
44297;BME280;51842;47.450;8.654;2023-11-22T02:53:32;95708.50;;;5.42;100.00
44297;BME280;51842;47.450;8.654;2023-11-22T02:56:01;95708.28;;;5.44;100.00
44297;BME280;51842;47.450;8.654;2023-11-22T02:58:30;95705.63;;;5.44;100.00
44297;BME280;51842;47.450;8.654;2023-11-22T03:00:56;95706.44;;;5.44;100.00
44297;BME280;51842;47.450;8.654;2023-11-22T03:03:23;95710.31;;;5.42;100.00
44297;BME280;51842;47.450;8.654;2023-11-22T03:05:53;95704.84;;;5.43;100.00
44297;BME280;51842;47.450;8.654;2023-11-22T03:08:19;95709.53;;;5.41;100.00
44297;BME280;51842;47.450;8.654;2023-11-22T03:10:44;95706.34;;;5.39;100.00
44297;BME280;51842;47.450;8.654;2023-11-22T03:13:10;95705.28;;;5.40;100.00
44297;BME280;51842;47.450;8.654;2023-11-22T03:15:36;95705.03;;;5.42;100.00
44297;BME280;51842;47.450;8.654;2023-11-22T03:18:02;95698.50;;;5.32;100.00
44297;BME280;51842;47.450;8.654;2023-11-22T03:20:28;95704.59;;;5.33;100.00
44297;BME280;51842;47.450;8.654;2023-11-22T03:22:56;95701.38;;;5.31;100.00
44297;BME280;51842;47.450;8.654;2023-11-22T03:25:22;95711.13;;;5.30;100.00
44297;BME280;51842;47.450;8.654;2023-11-22T03:27:48;95706.31;;;5.27;100.00
44297;BME280;51842;47.450;8.654;2023-11-22T03:30:14;95707.91;;;5.28;100.00
44297;BME280;51842;47.450;8.654;2023-11-22T03:32:44;95707.56;;;5.25;100.00
44297;BME280;51842;47.450;8.654;2023-11-22T03:35:10;95707.81;;;5.23;100.00
44297;BME280;51842;47.450;8.654;2023-11-22T03:37:36;95716.28;;;5.25;100.00
44297;BME280;51842;47.450;8.654;2023-11-22T03:40:03;95718.38;;;5.23;100.00
44297;BME280;51842;47.450;8.654;2023-11-22T03:42:29;95721.00;;;5.23;100.00
44297;BME280;51842;47.450;8.654;2023-11-22T03:44:55;95719.63;;;5.21;100.00
44297;BME280;51842;47.450;8.654;2023-11-22T03:47:21;95726.38;;;5.17;100.00
44297;BME280;51842;47.450;8.654;2023-11-22T03:49:47;95720.88;;;5.18;100.00
44297;BME280;51842;47.450;8.654;2023-11-22T03:52:13;95722.47;;;5.19;100.00
44297;BME280;51842;47.450;8.654;2023-11-22T03:54:42;95728.56;;;5.20;100.00
44297;BME280;51842;47.450;8.654;2023-11-22T03:57:08;95727.53;;;5.21;100.00
44297;BME280;51842;47.450;8.654;2023-11-22T03:59:35;95723.06;;;5.21;100.00
44297;BME280;51842;47.450;8.654;2023-11-22T04:02:01;95725.13;;;5.19;100.00
44297;BME280;51842;47.450;8.654;2023-11-22T04:04:26;95725.13;;;5.19;100.00
44297;BME280;51842;47.450;8.654;2023-11-22T04:06:52;95729.00;;;5.17;100.00
44297;BME280;51842;47.450;8.654;2023-11-22T04:09:18;95737.97;;;5.16;100.00
44297;BME280;51842;47.450;8.654;2023-11-22T04:11:46;95737.97;;;5.16;100.00
44297;BME280;51842;47.450;8.654;2023-11-22T04:14:13;95750.97;;;5.17;100.00
44297;BME280;51842;47.450;8.654;2023-11-22T04:16:38;95752.78;;;5.17;100.00
44297;BME280;51842;47.450;8.654;2023-11-22T04:19:04;95757.06;;;5.18;100.00
44297;BME280;51842;47.450;8.654;2023-11-22T04:21:30;95759.91;;;5.16;100.00
44297;BME280;51842;47.450;8.654;2023-11-22T04:23:56;95754.06;;;5.14;100.00
44297;BME280;51842;47.450;8.654;2023-11-22T04:26:23;95759.78;;;5.11;100.00
44297;BME280;51842;47.450;8.654;2023-11-22T04:28:50;95760.59;;;5.12;100.00
44297;BME280;51842;47.450;8.654;2023-11-22T04:31:16;95765.41;;;5.15;100.00
44297;BME280;51842;47.450;8.654;2023-11-22T04:33:42;95768.88;;;5.15;100.00
44297;BME280;51842;47.450;8.654;2023-11-22T04:36:08;95772.31;;;5.16;100.00
44297;BME280;51842;47.450;8.654;2023-11-22T04:38:33;95779.88;;;5.12;100.00
44297;BME280;51842;47.450;8.654;2023-11-22T04:41:00;95773.19;;;5.09;100.00
44297;BME280;51842;47.450;8.654;2023-11-22T04:43:25;95773.00;;;5.11;100.00
44297;BME280;51842;47.450;8.654;2023-11-22T04:45:52;95777.44;;;5.10;100.00
44297;BME280;51842;47.450;8.654;2023-11-22T04:48:18;95775.97;;;5.15;100.00
44297;BME280;51842;47.450;8.654;2023-11-22T04:50:43;95774.16;;;5.15;100.00
44297;BME280;51842;47.450;8.654;2023-11-22T04:53:11;95780.22;;;5.16;100.00
44297;BME280;51842;47.450;8.654;2023-11-22T04:55:37;95785.00;;;5.07;100.00
44297;BME280;51842;47.450;8.654;2023-11-22T04:58:03;95778.94;;;5.06;100.00
44297;BME280;51842;47.450;8.654;2023-11-22T05:00:29;95782.16;;;5.08;100.00
44297;BME280;51842;47.450;8.654;2023-11-22T05:02:54;95788.69;;;5.06;100.00
44297;BME280;51842;47.450;8.654;2023-11-22T05:05:21;95777.91;;;5.07;100.00
44297;BME280;51842;47.450;8.654;2023-11-22T05:07:46;95782.97;;;5.09;100.00
44297;BME280;51842;47.450;8.654;2023-11-22T05:10:15;95800.84;;;5.07;100.00
44297;BME280;51842;47.450;8.654;2023-11-22T05:12:42;95805.47;;;5.12;100.00
44297;BME280;51842;47.450;8.654;2023-11-22T05:15:09;95807.19;;;5.06;100.00
44297;BME280;51842;47.450;8.654;2023-11-22T05:17:35;95806.03;;;5.02;100.00
44297;BME280;51842;47.450;8.654;2023-11-22T05:20:01;95811.50;;;5.00;100.00
44297;BME280;51842;47.450;8.654;2023-11-22T05:22:27;95809.31;;;4.97;100.00
44297;BME280;51842;47.450;8.654;2023-11-22T05:24:53;95812.84;;;4.91;100.00
44297;BME280;51842;47.450;8.654;2023-11-22T05:27:19;95818.91;;;4.80;100.00
44297;BME280;51842;47.450;8.654;2023-11-22T05:29:45;95819.38;;;4.88;100.00
44297;BME280;51842;47.450;8.654;2023-11-22T05:32:10;95835.81;;;4.91;100.00
44297;BME280;51842;47.450;8.654;2023-11-22T05:34:37;95827.75;;;4.85;100.00
44297;BME280;51842;47.450;8.654;2023-11-22T05:37:05;95839.78;;;4.81;100.00
44297;BME280;51842;47.450;8.654;2023-11-22T05:39:31;95839.78;;;4.81;100.00
44297;BME280;51842;47.450;8.654;2023-11-22T05:41:57;95839.94;;;4.86;100.00
44297;BME280;51842;47.450;8.654;2023-11-22T05:44:22;95837.19;;;4.93;100.00
44297;BME280;51842;47.450;8.654;2023-11-22T05:46:48;95851.44;;;4.92;100.00
44297;BME280;51842;47.450;8.654;2023-11-22T05:49:14;95852.25;;;4.93;100.00
44297;BME280;51842;47.450;8.654;2023-11-22T05:51:40;95851.66;;;4.91;100.00
44297;BME280;51842;47.450;8.654;2023-11-22T05:54:07;95851.50;;;4.85;100.00
44297;BME280;51842;47.450;8.654;2023-11-22T05:56:32;95850.25;;;4.88;100.00
44297;BME280;51842;47.450;8.654;2023-11-22T05:58:59;95855.75;;;4.86;100.00
44297;BME280;51842;47.450;8.654;2023-11-22T06:01:25;95865.53;;;4.86;100.00
44297;BME280;51842;47.450;8.654;2023-11-22T06:03:52;95864.47;;;4.87;100.00
44297;BME280;51842;47.450;8.654;2023-11-22T06:06:19;95865.88;;;4.90;100.00
44297;BME280;51842;47.450;8.654;2023-11-22T06:08:47;95862.06;;;4.85;100.00
44297;BME280;51842;47.450;8.654;2023-11-22T06:11:13;95859.13;;;4.94;100.00
44297;BME280;51842;47.450;8.654;2023-11-22T06:13:41;95854.44;;;4.96;100.00
44297;BME280;51842;47.450;8.654;2023-11-22T06:16:13;95855.00;;;4.98;100.00
44297;BME280;51842;47.450;8.654;2023-11-22T06:18:38;95857.88;;;4.96;100.00
44297;BME280;51842;47.450;8.654;2023-11-22T06:21:10;95856.84;;;4.97;100.00
44297;BME280;51842;47.450;8.654;2023-11-22T06:23:36;95860.06;;;4.99;100.00
44297;BME280;51842;47.450;8.654;2023-11-22T06:26:02;95860.28;;;4.98;100.00
44297;BME280;51842;47.450;8.654;2023-11-22T06:28:28;95868.44;;;4.96;100.00
44297;BME280;51842;47.450;8.654;2023-11-22T06:30:57;95862.34;;;4.96;100.00
44297;BME280;51842;47.450;8.654;2023-11-22T06:33:23;95867.63;;;4.96;100.00
44297;BME280;51842;47.450;8.654;2023-11-22T06:35:48;95872.75;;;4.91;100.00
44297;BME280;51842;47.450;8.654;2023-11-22T06:38:14;95864.84;;;4.91;100.00
44297;BME280;51842;47.450;8.654;2023-11-22T06:40:40;95874.00;;;4.88;100.00
44297;BME280;51842;47.450;8.654;2023-11-22T06:43:06;95877.44;;;4.88;100.00
44297;BME280;51842;47.450;8.654;2023-11-22T06:45:32;95880.75;;;4.84;100.00
44297;BME280;51842;47.450;8.654;2023-11-22T06:47:58;95899.09;;;4.79;100.00
44297;BME280;51842;47.450;8.654;2023-11-22T06:50:24;95895.03;;;4.76;100.00
44297;BME280;51842;47.450;8.654;2023-11-22T06:52:50;95898.16;;;4.73;100.00
44297;BME280;51842;47.450;8.654;2023-11-22T06:55:18;95896.59;;;4.66;100.00
44297;BME280;51842;47.450;8.654;2023-11-22T06:57:44;95902.75;;;4.59;100.00
44297;BME280;51842;47.450;8.654;2023-11-22T07:00:11;95917.19;;;4.57;100.00
44297;BME280;51842;47.450;8.654;2023-11-22T07:02:38;95921.53;;;4.51;100.00
44297;BME280;51842;47.450;8.654;2023-11-22T07:05:04;95925.59;;;4.47;100.00
44297;BME280;51842;47.450;8.654;2023-11-22T07:07:37;95934.81;;;4.38;100.00
44297;BME280;51842;47.450;8.654;2023-11-22T07:10:03;95937.50;;;4.31;100.00
44297;BME280;51842;47.450;8.654;2023-11-22T07:12:33;95950.50;;;4.33;100.00
44297;BME280;51842;47.450;8.654;2023-11-22T07:15:00;95951.28;;;4.33;100.00
44297;BME280;51842;47.450;8.654;2023-11-22T07:17:26;95949.94;;;4.24;100.00
44297;BME280;51842;47.450;8.654;2023-11-22T07:19:54;95956.81;;;4.25;100.00
44297;BME280;51842;47.450;8.654;2023-11-22T07:22:21;95964.38;;;4.22;100.00
44297;BME280;51842;47.450;8.654;2023-11-22T07:24:49;95967.06;;;4.15;100.00
44297;BME280;51842;47.450;8.654;2023-11-22T07:27:20;95976.94;;;4.20;100.00
44297;BME280;51842;47.450;8.654;2023-11-22T07:29:46;95975.16;;;4.13;100.00
44297;BME280;51842;47.450;8.654;2023-11-22T07:32:12;95975.41;;;4.12;100.00
44297;BME280;51842;47.450;8.654;2023-11-22T07:34:40;95993.25;;;4.10;100.00
44297;BME280;51842;47.450;8.654;2023-11-22T07:37:07;95990.22;;;4.06;100.00
44297;BME280;51842;47.450;8.654;2023-11-22T07:39:36;95994.69;;;4.06;100.00
44297;BME280;51842;47.450;8.654;2023-11-22T07:42:07;95996.44;;;3.87;100.00
44297;BME280;51842;47.450;8.654;2023-11-22T07:44:34;96005.56;;;3.84;100.00
44297;BME280;51842;47.450;8.654;2023-11-22T07:47:02;96010.69;;;3.72;100.00
44297;BME280;51842;47.450;8.654;2023-11-22T07:49:28;96016.63;;;3.68;100.00
44297;BME280;51842;47.450;8.654;2023-11-22T07:51:54;96015.22;;;3.65;100.00
44297;BME280;51842;47.450;8.654;2023-11-22T07:54:22;96007.09;;;3.67;100.00
44297;BME280;51842;47.450;8.654;2023-11-22T07:56:51;96013.63;;;3.58;100.00
44297;BME280;51842;47.450;8.654;2023-11-22T07:59:20;96012.25;;;3.48;100.00
44297;BME280;51842;47.450;8.654;2023-11-22T08:01:46;96015.31;;;3.45;100.00
44297;BME280;51842;47.450;8.654;2023-11-22T08:04:15;96009.03;;;3.40;100.00
44297;BME280;51842;47.450;8.654;2023-11-22T08:06:44;96026.66;;;3.39;100.00
44297;BME280;51842;47.450;8.654;2023-11-22T08:09:11;96035.38;;;3.40;100.00
44297;BME280;51842;47.450;8.654;2023-11-22T08:11:37;96047.13;;;3.37;100.00
44297;BME280;51842;47.450;8.654;2023-11-22T08:14:03;96049.16;;;3.29;100.00
44297;BME280;51842;47.450;8.654;2023-11-22T08:16:29;96052.03;;;3.27;100.00
44297;BME280;51842;47.450;8.654;2023-11-22T08:18:55;96059.53;;;3.23;100.00
44297;BME280;51842;47.450;8.654;2023-11-22T08:21:23;96058.13;;;3.21;100.00
44297;BME280;51842;47.450;8.654;2023-11-22T08:23:49;96069.69;;;3.20;100.00
44297;BME280;51842;47.450;8.654;2023-11-22T08:26:16;96073.56;;;3.04;100.00
44297;BME280;51842;47.450;8.654;2023-11-22T08:28:42;96076.38;;;3.03;100.00
44297;BME280;51842;47.450;8.654;2023-11-22T08:31:08;96076.59;;;3.01;100.00
44297;BME280;51842;47.450;8.654;2023-11-22T08:33:38;96077.00;;;3.05;100.00
44297;BME280;51842;47.450;8.654;2023-11-22T08:36:08;96081.25;;;2.99;100.00
44297;BME280;51842;47.450;8.654;2023-11-22T08:38:35;96079.41;;;2.99;100.00
44297;BME280;51842;47.450;8.654;2023-11-22T08:41:06;96086.69;;;2.97;100.00
44297;BME280;51842;47.450;8.654;2023-11-22T08:43:33;96088.53;;;2.90;100.00
44297;BME280;51842;47.450;8.654;2023-11-22T08:46:00;96089.97;;;2.86;100.00
44297;BME280;51842;47.450;8.654;2023-11-22T08:48:26;96082.09;;;2.73;100.00
44297;BME280;51842;47.450;8.654;2023-11-22T08:50:53;96078.03;;;2.77;100.00
44297;BME280;51842;47.450;8.654;2023-11-22T08:53:21;96081.28;;;2.79;100.00
44297;BME280;51842;47.450;8.654;2023-11-22T08:55:47;96094.81;;;2.83;100.00
44297;BME280;51842;47.450;8.654;2023-11-22T08:58:13;96101.50;;;2.85;100.00
44297;BME280;51842;47.450;8.654;2023-11-22T09:00:40;96100.66;;;2.85;100.00
44297;BME280;51842;47.450;8.654;2023-11-22T09:03:08;96112.84;;;2.86;100.00
44297;BME280;51842;47.450;8.654;2023-11-22T09:05:41;96105.94;;;2.91;100.00
44297;BME280;51842;47.450;8.654;2023-11-22T09:08:08;96106.94;;;2.90;100.00
44297;BME280;51842;47.450;8.654;2023-11-22T09:10:41;96110.63;;;2.83;100.00
44297;BME280;51842;47.450;8.654;2023-11-22T09:13:08;96118.69;;;2.88;100.00
44297;BME280;51842;47.450;8.654;2023-11-22T09:15:35;96124.16;;;2.93;100.00
44297;BME280;51842;47.450;8.654;2023-11-22T09:18:01;96128.00;;;2.97;100.00
44297;BME280;51842;47.450;8.654;2023-11-22T09:20:27;96135.09;;;2.96;100.00
44297;BME280;51842;47.450;8.654;2023-11-22T09:22:54;96138.75;;;2.95;100.00
44297;BME280;51842;47.450;8.654;2023-11-22T09:25:23;96145.84;;;2.95;100.00
44297;BME280;51842;47.450;8.654;2023-11-22T09:27:55;96145.22;;;2.93;100.00
44297;BME280;51842;47.450;8.654;2023-11-22T09:30:26;96145.00;;;2.94;100.00
44297;BME280;51842;47.450;8.654;2023-11-22T09:35:33;96136.31;;;2.87;100.00
44297;BME280;51842;47.450;8.654;2023-11-22T09:38:08;96143.00;;;2.90;100.00
44297;BME280;51842;47.450;8.654;2023-11-22T09:43:09;96137.72;;;2.96;100.00
44297;BME280;51842;47.450;8.654;2023-11-22T09:45:36;96120.72;;;2.99;100.00
44297;BME280;51842;47.450;8.654;2023-11-22T09:48:19;96121.53;;;2.99;100.00
44297;BME280;51842;47.450;8.654;2023-11-22T09:51:23;96118.72;;;3.01;100.00
44297;BME280;51842;47.450;8.654;2023-11-22T09:53:56;96116.88;;;3.08;100.00
44297;BME280;51842;47.450;8.654;2023-11-22T09:56:25;96109.34;;;3.25;100.00
44297;BME280;51842;47.450;8.654;2023-11-22T09:58:55;96114.97;;;3.35;100.00
44297;BME280;51842;47.450;8.654;2023-11-22T10:01:24;96112.75;;;3.45;100.00
44297;BME280;51842;47.450;8.654;2023-11-22T10:03:50;96115.75;;;3.62;100.00
44297;BME280;51842;47.450;8.654;2023-11-22T10:06:17;96108.78;;;3.81;100.00
44297;BME280;51842;47.450;8.654;2023-11-22T10:08:44;96107.84;;;4.07;100.00
44297;BME280;51842;47.450;8.654;2023-11-22T10:11:16;96106.56;;;4.23;100.00
44297;BME280;51842;47.450;8.654;2023-11-22T10:13:50;96112.38;;;4.32;100.00
44297;BME280;51842;47.450;8.654;2023-11-22T10:16:18;96122.50;;;4.35;100.00
44297;BME280;51842;47.450;8.654;2023-11-22T10:18:48;96129.56;;;4.41;100.00
44297;BME280;51842;47.450;8.654;2023-11-22T10:21:27;96131.44;;;4.34;100.00
44297;BME280;51842;47.450;8.654;2023-11-22T10:23:57;96141.81;;;4.29;100.00
44297;BME280;51842;47.450;8.654;2023-11-22T10:26:26;96146.13;;;4.16;100.00
44297;BME280;51842;47.450;8.654;2023-11-22T10:28:54;96148.13;;;4.28;100.00
44297;BME280;51842;47.450;8.654;2023-11-22T10:31:22;96150.78;;;4.21;100.00
44297;BME280;51842;47.450;8.654;2023-11-22T10:33:49;96149.25;;;4.00;100.00
44297;BME280;51842;47.450;8.654;2023-11-22T10:36:16;96164.09;;;3.88;100.00
44297;BME280;51842;47.450;8.654;2023-11-22T10:38:47;96155.81;;;3.84;100.00
44297;BME280;51842;47.450;8.654;2023-11-22T10:41:14;96155.16;;;3.96;100.00
44297;BME280;51842;47.450;8.654;2023-11-22T10:43:40;96158.81;;;4.01;100.00
44297;BME280;51842;47.450;8.654;2023-11-22T10:46:13;96156.84;;;3.77;100.00
44297;BME280;51842;47.450;8.654;2023-11-22T10:48:39;96160.31;;;3.57;100.00
44297;BME280;51842;47.450;8.654;2023-11-22T10:51:06;96149.38;;;3.54;100.00
44297;BME280;51842;47.450;8.654;2023-11-22T10:53:36;96154.22;;;3.63;100.00
44297;BME280;51842;47.450;8.654;2023-11-22T10:56:19;96160.75;;;3.61;100.00
44297;BME280;51842;47.450;8.654;2023-11-22T10:58:57;96152.84;;;3.61;100.00
44297;BME280;51842;47.450;8.654;2023-11-22T11:01:26;96156.66;;;3.71;100.00
44297;BME280;51842;47.450;8.654;2023-11-22T11:04:09;96150.03;;;3.42;100.00
44297;BME280;51842;47.450;8.654;2023-11-22T11:06:38;96146.94;;;3.65;100.00
44297;BME280;51842;47.450;8.654;2023-11-22T11:09:06;96141.31;;;3.55;100.00
44297;BME280;51842;47.450;8.654;2023-11-22T11:11:36;96152.84;;;3.61;100.00
44297;BME280;51842;47.450;8.654;2023-11-22T11:14:04;96155.84;;;3.71;100.00
44297;BME280;51842;47.450;8.654;2023-11-22T11:16:35;96155.06;;;3.64;100.00
44297;BME280;51842;47.450;8.654;2023-11-22T11:19:17;96159.72;;;3.62;100.00
44297;BME280;51842;47.450;8.654;2023-11-22T11:21:44;96161.75;;;3.60;100.00
44297;BME280;51842;47.450;8.654;2023-11-22T11:24:10;96168.41;;;3.69;100.00
44297;BME280;51842;47.450;8.654;2023-11-22T11:26:36;96170.66;;;3.65;100.00
44297;BME280;51842;47.450;8.654;2023-11-22T11:29:02;96174.91;;;3.66;100.00
44297;BME280;51842;47.450;8.654;2023-11-22T11:31:34;96180.97;;;3.74;100.00
44297;BME280;51842;47.450;8.654;2023-11-22T11:34:08;96195.16;;;3.72;100.00
44297;BME280;51842;47.450;8.654;2023-11-22T11:36:37;96182.81;;;3.73;100.00
44297;BME280;51842;47.450;8.654;2023-11-22T11:39:08;96185.81;;;3.83;100.00
44297;BME280;51842;47.450;8.654;2023-11-22T11:41:41;96192.53;;;3.72;100.00
44297;BME280;51842;47.450;8.654;2023-11-22T11:44:08;96189.09;;;3.65;100.00
44297;BME280;51842;47.450;8.654;2023-11-22T11:46:37;96203.06;;;3.79;100.00
44297;BME280;51842;47.450;8.654;2023-11-22T11:49:07;96204.75;;;3.34;100.00
44297;BME280;51842;47.450;8.654;2023-11-22T11:51:34;96189.53;;;3.42;100.00
44297;BME280;51842;47.450;8.654;2023-11-22T11:54:00;96191.78;;;3.45;100.00
44297;BME280;51842;47.450;8.654;2023-11-22T11:56:26;96194.19;;;3.54;100.00
44297;BME280;51842;47.450;8.654;2023-11-22T11:58:56;96196.81;;;3.47;100.00
44297;BME280;51842;47.450;8.654;2023-11-22T12:01:29;96180.00;;;3.55;100.00
44297;BME280;51842;47.450;8.654;2023-11-22T12:04:01;96178.78;;;3.64;100.00
44297;BME280;51842;47.450;8.654;2023-11-22T12:06:29;96181.03;;;3.47;100.00
44297;BME280;51842;47.450;8.654;2023-11-22T12:08:54;96183.28;;;3.30;100.00
44297;BME280;51842;47.450;8.654;2023-11-22T12:11:20;96172.13;;;3.35;100.00
44297;BME280;51842;47.450;8.654;2023-11-22T12:13:47;96169.06;;;3.44;100.00
44297;BME280;51842;47.450;8.654;2023-11-22T12:16:18;96164.41;;;3.53;100.00
44297;BME280;51842;47.450;8.654;2023-11-22T12:18:48;96156.69;;;3.58;100.00
44297;BME280;51842;47.450;8.654;2023-11-22T12:21:16;96153.25;;;3.58;100.00
44297;BME280;51842;47.450;8.654;2023-11-22T12:23:44;96167.81;;;3.67;100.00
44297;BME280;51842;47.450;8.654;2023-11-22T12:26:14;96161.34;;;3.56;100.00
44297;BME280;51842;47.450;8.654;2023-11-22T12:28:42;96160.97;;;3.53;100.00
44297;BME280;51842;47.450;8.654;2023-11-22T12:31:13;96176.13;;;3.57;100.00
44297;BME280;51842;47.450;8.654;2023-11-22T12:33:41;96184.22;;;3.69;100.00
44297;BME280;51842;47.450;8.654;2023-11-22T12:36:10;96187.91;;;3.61;100.00
44297;BME280;51842;47.450;8.654;2023-11-22T12:38:41;96189.75;;;3.28;100.00
44297;BME280;51842;47.450;8.654;2023-11-22T12:41:07;96189.56;;;3.36;100.00
44297;BME280;51842;47.450;8.654;2023-11-22T12:43:33;96193.41;;;3.27;100.00
44297;BME280;51842;47.450;8.654;2023-11-22T12:46:09;96202.50;;;3.31;100.00
44297;BME280;51842;47.450;8.654;2023-11-22T12:48:42;96211.84;;;3.40;100.00
44297;BME280;51842;47.450;8.654;2023-11-22T12:51:17;96201.50;;;3.32;100.00
44297;BME280;51842;47.450;8.654;2023-11-22T12:53:47;96212.44;;;3.22;100.00
44297;BME280;51842;47.450;8.654;2023-11-22T12:56:15;96205.75;;;3.33;100.00
44297;BME280;51842;47.450;8.654;2023-11-22T12:58:41;96215.06;;;3.35;100.00
44297;BME280;51842;47.450;8.654;2023-11-22T13:01:06;96220.34;;;3.42;100.00
44297;BME280;51842;47.450;8.654;2023-11-22T13:03:32;96229.47;;;3.39;100.00
44297;BME280;51842;47.450;8.654;2023-11-22T13:05:58;96235.94;;;3.30;100.00
44297;BME280;51842;47.450;8.654;2023-11-22T13:08:24;96231.28;;;3.32;100.00